Time;durP1;ratioP1;P1;durP2;ratioP2;P2;SDS_P1;SDS_P2;PMS_P1;PMS_P2;Temp;Humidity;BMP_temperature;BMP_pressure;BME280_temperature;BME280_humidity;BME280_pressure;Samples;Min_cycle;Max_cycle;Signal;HPM_P1;HPM_P2
2022/05/11 00:01:49;;;;;;;6.77;5.60;;;17.30;99.90;;;;;;5081157;28;20640;-59
2022/05/11 00:04:21;;;;;;;5.03;4.53;;;17.30;99.90;;;;;;5099619;28;20496;-59
2022/05/11 00:06:53;;;;;;;10.40;5.07;;;17.30;99.90;;;;;;5099743;28;20460;-59
2022/05/11 00:09:22;;;;;;;5.23;4.43;;;17.30;99.90;;;;;;5100074;28;20460;-59
2022/05/11 00:11:49;;;;;;;5.50;4.90;;;17.30;99.90;;;;;;5099485;28;20430;-59
2022/05/11 00:14:18;;;;;;;6.93;5.47;;;17.30;99.90;;;;;;5079559;28;20462;-59
2022/05/11 00:16:45;;;;;;;8.27;5.27;;;17.30;99.90;;;;;;5079412;28;20497;-59
2022/05/11 00:19:12;;;;;;;5.63;5.03;;;17.30;99.90;;;;;;5078569;28;20527;-59
2022/05/11 00:21:39;;;;;;;6.63;5.77;;;17.40;99.90;;;;;;5079016;28;20592;-59
2022/05/11 00:24:11;;;;;;;5.63;5.13;;;17.30;99.90;;;;;;5088780;28;20492;-59
2022/05/11 00:26:38;;;;;;;6.23;5.50;;;17.30;99.90;;;;;;5099769;28;20464;-59
2022/05/11 00:29:08;;;;;;;6.40;5.70;;;17.30;99.90;;;;;;5099482;28;20942;-60
2022/05/11 00:32:00;;;;;;;6.20;5.50;;;17.30;99.90;;;;;;5099658;28;20745;-59
2022/05/11 00:34:32;;;;;;;10.63;6.60;;;17.20;99.90;;;;;;5090193;28;20458;-59
2022/05/11 00:37:02;;;;;;;9.77;6.20;;;17.20;99.90;;;;;;5079011;28;20850;-59
2022/05/11 00:39:34;;;;;;;8.10;6.20;;;17.20;99.90;;;;;;5079113;28;20467;-60
2022/05/11 00:42:06;;;;;;;6.10;5.50;;;17.20;99.90;;;;;;5079184;28;20592;-58
2022/05/11 00:44:34;;;;;;;6.77;5.97;;;17.10;99.90;;;;;;5084007;28;20518;-58
2022/05/11 00:47:08;;;;;;;6.40;5.80;;;17.10;99.90;;;;;;5099315;28;20518;-57
2022/05/11 00:49:42;;;;;;;7.30;6.60;;;17.00;99.90;;;;;;5099333;28;20877;-59
2022/05/11 00:52:12;;;;;;;7.13;5.30;;;17.00;99.90;;;;;;5099187;28;20456;-58
2022/05/11 00:54:49;;;;;;;6.70;6.10;;;16.90;99.90;;;;;;5099198;28;20795;-58
2022/05/11 00:57:21;;;;;;;6.53;5.80;;;16.90;99.90;;;;;;5099043;28;20460;-58
2022/05/11 00:59:51;;;;;;;6.57;5.43;;;16.80;99.90;;;;;;5098602;28;20456;-59
2022/05/11 01:02:19;;;;;;;7.60;5.33;;;16.70;99.90;;;;;;5098898;28;20499;-57
2022/05/11 01:04:47;;;;;;;6.50;5.73;;;16.60;99.90;;;;;;5099052;28;20499;-58
2022/05/11 01:07:17;;;;;;;8.13;6.90;;;16.60;99.90;;;;;;5098991;28;20484;-59
2022/05/11 01:09:46;;;;;;;10.43;6.03;;;16.60;99.90;;;;;;5099077;28;20515;-58
2022/05/11 01:12:20;;;;;;;8.90;6.63;;;16.70;99.90;;;;;;5098599;28;20877;-58
2022/05/11 01:14:51;;;;;;;7.13;6.47;;;16.60;99.90;;;;;;5099027;28;20559;-58
2022/05/11 01:17:19;;;;;;;6.50;5.90;;;16.60;99.90;;;;;;5080589;28;20500;-58
2022/05/11 01:19:50;;;;;;;7.07;6.47;;;16.50;99.90;;;;;;5077945;28;20461;-58
2022/05/11 01:22:23;;;;;;;6.43;5.93;;;16.50;99.90;;;;;;5078357;28;20514;-58
2022/05/11 01:24:55;;;;;;;7.10;6.40;;;16.50;99.90;;;;;;5077818;28;20465;-59
2022/05/11 01:27:27;;;;;;;7.20;6.50;;;16.50;99.90;;;;;;5078262;28;20546;-57
2022/05/11 01:30:01;;;;;;;10.47;6.60;;;16.40;99.90;;;;;;5077938;28;20497;-59
2022/05/11 01:32:30;;;;;;;8.43;5.93;;;16.40;99.90;;;;;;5078149;28;20484;-58
2022/05/11 01:35:17;;;;;;;6.90;5.73;;;16.40;99.90;;;;;;5078330;28;20465;-59
2022/05/11 01:38:04;;;;;;;7.50;5.87;;;16.40;99.90;;;;;;5075176;28;20524;-59
2022/05/11 01:40:39;;;;;;;6.80;5.47;;;16.40;99.90;;;;;;5077956;28;20538;-59
2022/05/11 01:43:19;;;;;;;6.33;5.73;;;16.50;99.90;;;;;;5077953;28;20489;-59
2022/05/11 01:45:51;;;;;;;8.03;7.33;;;16.50;99.90;;;;;;5077716;28;20501;-59
2022/05/11 01:48:21;;;;;;;6.90;6.20;;;16.50;99.90;;;;;;5077794;28;20471;-58
2022/05/11 01:50:52;;;;;;;7.80;6.27;;;16.50;99.90;;;;;;5077703;28;20508;-58
2022/05/11 01:53:20;;;;;;;6.87;6.27;;;16.50;99.90;;;;;;5078104;28;20464;-57
2022/05/11 01:55:49;;;;;;;7.57;6.87;;;16.40;99.90;;;;;;5077748;28;20465;-59
2022/05/11 01:58:17;;;;;;;6.50;5.93;;;16.30;99.90;;;;;;5077365;28;20555;-58
2022/05/11 02:00:49;;;;;;;10.03;6.27;;;16.20;99.90;;;;;;5077567;28;20594;-59
2022/05/11 02:03:20;;;;;;;7.03;6.33;;;16.20;99.90;;;;;;5078091;28;20463;-56
2022/05/11 02:08:38;;;;;;;7.33;6.17;;;16.10;99.90;;;;;;5077002;28;20606;-58
2022/05/11 02:11:09;;;;;;;6.97;6.30;;;16.00;99.90;;;;;;5077788;28;20520;-58
2022/05/11 02:13:37;;;;;;;8.17;7.00;;;15.90;99.90;;;;;;5077435;28;20476;-59
2022/05/11 02:16:07;;;;;;;7.37;6.60;;;15.80;99.90;;;;;;5089315;28;20486;-58
2022/05/11 02:19:08;;;;;;;6.63;5.93;;;15.80;99.90;;;;;;5097248;28;20543;-58
2022/05/11 02:21:34;;;;;;;7.63;6.93;;;15.70;99.90;;;;;;5097986;28;20492;-58
2022/05/11 02:24:05;;;;;;;9.57;6.70;;;15.70;99.90;;;;;;5097241;28;20460;-57
2022/05/11 02:26:34;;;;;;;8.90;6.87;;;15.60;99.90;;;;;;5097479;28;20975;-58
2022/05/11 02:29:05;;;;;;;9.23;6.97;;;15.60;99.90;;;;;;5082096;28;20548;-58
2022/05/11 02:31:32;;;;;;;7.37;6.63;;;15.60;99.90;;;;;;5077731;28;20463;-58
2022/05/11 02:34:02;;;;;;;6.57;5.87;;;15.60;99.90;;;;;;5096118;28;20538;-59
2022/05/11 02:36:32;;;;;;;6.97;6.33;;;15.50;99.90;;;;;;5097354;28;20776;-57
2022/05/11 02:38:59;;;;;;;7.63;6.83;;;15.50;99.90;;;;;;5086143;28;20489;-58
2022/05/11 02:41:31;;;;;;;11.30;6.73;;;15.40;99.90;;;;;;5077685;28;20936;-55
2022/05/11 02:44:03;;;;;;;7.00;6.30;;;15.40;99.90;;;;;;5076667;28;20568;-58
2022/05/11 02:47:00;;;;;;;8.43;6.77;;;15.30;99.90;;;;;;5077604;28;20964;-57
2022/05/11 02:49:27;;;;;;;7.50;6.80;;;15.40;99.90;;;;;;5087030;28;20777;-58
2022/05/11 02:51:54;;;;;;;7.83;6.20;;;15.30;99.90;;;;;;5097422;28;20488;-57
2022/05/11 02:54:21;;;;;;;8.20;6.80;;;15.20;99.90;;;;;;5096686;28;20464;-58
2022/05/11 02:56:54;;;;;;;7.00;6.40;;;15.20;99.90;;;;;;5096972;28;20464;-58
2022/05/11 02:59:25;;;;;;;6.90;6.20;;;15.10;99.90;;;;;;5090702;28;20891;-58
2022/05/11 03:01:52;;;;;;;6.83;6.23;;;15.20;99.90;;;;;;5076555;28;20499;-58
2022/05/11 03:04:33;;;;;;;7.13;6.50;;;15.00;99.90;;;;;;5075873;28;20556;-59
2022/05/11 03:07:05;;;;;;;7.87;6.10;;;14.90;99.90;;;;;;5077331;28;20487;-57
2022/05/11 03:09:35;;;;;;;7.97;6.67;;;14.90;99.90;;;;;;5080336;28;20889;-58
2022/05/11 03:12:08;;;;;;;7.90;7.10;;;14.90;99.90;;;;;;5097135;28;20546;-58
2022/05/11 03:14:44;;;;;;;7.47;6.73;;;15.00;99.90;;;;;;5096582;28;20484;-58
2022/05/11 03:17:11;;;;;;;7.73;7.03;;;14.90;99.90;;;;;;5097226;28;20460;-58
2022/05/11 03:19:44;;;;;;;9.23;7.30;;;15.00;99.90;;;;;;5095660;28;20464;-58
2022/05/11 03:22:18;;;;;;;8.10;7.10;;;15.00;99.90;;;;;;5080554;28;20520;-58
2022/05/11 03:24:49;;;;;;;8.73;7.53;;;15.00;99.90;;;;;;5080299;28;20460;-57
2022/05/11 03:27:17;;;;;;;7.90;6.67;;;14.90;99.90;;;;;;5080780;28;20499;-58
2022/05/11 03:29:47;;;;;;;7.37;6.67;;;14.90;99.90;;;;;;5079864;28;20467;-56
2022/05/11 03:34:58;;;;;;;8.17;7.40;;;14.80;99.90;;;;;;5100115;28;20447;-59
2022/05/11 03:37:28;;;;;;;8.10;7.33;;;14.70;99.90;;;;;;5100500;28;20529;-58
2022/05/11 03:40:03;;;;;;;7.97;7.17;;;14.70;99.90;;;;;;5100001;28;20496;-59
2022/05/11 03:42:37;;;;;;;7.77;7.10;;;14.70;99.90;;;;;;5087216;28;20503;-59
2022/05/11 03:45:14;;;;;;;9.37;7.60;;;14.60;99.90;;;;;;5080015;28;21652;-59
2022/05/11 03:47:41;;;;;;;7.93;7.00;;;14.60;99.90;;;;;;5079941;28;20912;-58
2022/05/11 03:50:22;;;;;;;8.20;6.40;;;14.50;99.90;;;;;;5079923;28;20495;-58
2022/05/11 03:52:49;;;;;;;8.80;6.73;;;14.50;99.90;;;;;;5095873;28;20460;-59
2022/05/11 03:55:19;;;;;;;7.80;7.00;;;14.50;99.90;;;;;;5100018;28;20490;-59
2022/05/11 03:57:49;;;;;;;9.00;6.83;;;14.50;99.90;;;;;;5100225;28;20507;-58
2022/05/11 04:00:21;;;;;;;8.90;6.80;;;14.50;99.90;;;;;;5100350;28;20492;-59
2022/05/11 04:02:48;;;;;;;8.60;7.77;;;14.50;99.90;;;;;;5092264;28;21116;-59
2022/05/11 04:05:18;;;;;;;9.97;7.47;;;14.50;99.90;;;;;;5098084;28;20795;-58
2022/05/11 04:08:02;;;;;;;7.27;6.57;;;14.50;99.90;;;;;;5099515;28;20803;-59
2022/05/11 04:10:35;;;;;;;7.70;6.90;;;14.50;99.90;;;;;;5100386;28;20886;-59
2022/05/11 04:13:05;;;;;;;8.70;7.40;;;14.40;1.00;;;;;;5095572;28;20755;-58
2022/05/11 04:15:41;;;;;;;8.30;7.50;;;14.40;1.00;;;;;;5080083;28;20907;-58
2022/05/11 04:18:08;;;;;;;7.70;7.00;;;14.40;1.00;;;;;;5090796;28;20787;-59
2022/05/11 04:20:47;;;;;;;8.20;7.50;;;14.40;1.00;;;;;;5094506;28;20500;-60
2022/05/11 04:23:14;;;;;;;8.50;7.60;;;14.40;99.90;;;;;;5093278;28;20870;-58
2022/05/11 04:25:45;;;;;;;8.63;6.80;;;14.40;99.90;;;;;;5098164;28;20516;-60
2022/05/11 04:29:04;;;;;;;8.33;7.10;;;14.40;99.90;;;;;;5090925;28;20834;-59
2022/05/11 04:31:32;;;;;;;8.33;7.63;;;14.40;99.90;;;;;;5077834;28;20470;-59
2022/05/11 04:34:01;;;;;;;8.70;7.80;;;14.50;99.90;;;;;;5078806;28;20481;-59
2022/05/11 04:36:30;;;;;;;9.87;7.83;;;14.50;99.90;;;;;;5079237;28;20515;-58
2022/05/11 04:38:57;;;;;;;9.23;7.63;;;14.50;99.90;;;;;;5079178;28;20455;-59
2022/05/11 04:41:33;;;;;;;8.97;8.07;;;14.50;99.90;;;;;;5079938;28;20479;-59
2022/05/11 04:44:00;;;;;;;7.87;7.07;;;14.40;99.90;;;;;;5085846;28;20488;-58
2022/05/11 04:46:33;;;;;;;7.07;6.43;;;14.40;99.90;;;;;;5087847;28;20485;-59
2022/05/11 04:51:42;;;;;;;9.60;7.77;;;14.40;99.90;;;;;;5086131;28;20429;-59
2022/05/11 04:54:09;;;;;;;9.60;7.83;;;14.40;99.90;;;;;;5087870;28;20506;-59
2022/05/11 04:56:42;;;;;;;8.23;7.53;;;14.40;1.00;;;;;;5091629;28;20488;-58
2022/05/11 04:59:14;;;;;;;10.37;7.50;;;14.60;1.00;;;;;;5099768;28;20488;-58
2022/05/11 05:01:40;;;;;;;9.60;7.60;;;14.70;1.00;;;;;;5098995;28;20484;-59
2022/05/11 05:04:09;;;;;;;8.10;7.40;;;14.90;99.90;;;;;;5099036;28;20491;-59
2022/05/11 05:06:40;;;;;;;8.57;7.40;;;14.90;99.90;;;;;;5088864;28;20815;-60
2022/05/11 05:09:17;;;;;;;8.83;8.03;;;15.00;99.90;;;;;;5075175;28;20461;-59
2022/05/11 05:11:48;;;;;;;8.47;7.67;;;15.00;99.90;;;;;;5094391;28;20541;-58
2022/05/11 05:14:16;;;;;;;7.97;7.17;;;15.10;99.90;;;;;;5094397;28;20572;-58
2022/05/11 05:16:43;;;;;;;9.67;7.10;;;15.20;99.90;;;;;;5097249;28;20461;-59
2022/05/11 05:19:21;;;;;;;11.33;7.87;;;15.30;99.90;;;;;;5094841;28;20900;-59
2022/05/11 05:21:48;;;;;;;9.10;8.23;;;15.40;99.90;;;;;;5097779;28;20483;-59
2022/05/11 05:24:18;;;;;;;8.47;7.67;;;15.40;99.90;;;;;;5097381;28;20488;-58
2022/05/11 05:26:45;;;;;;;12.00;8.50;;;15.50;99.90;;;;;;5077643;28;20555;-58
2022/05/11 05:31:59;;;;;;;8.47;7.80;;;15.60;99.90;;;;;;5077756;28;20497;-58
2022/05/11 05:34:27;;;;;;;8.50;7.00;;;15.70;99.90;;;;;;5077804;28;20910;-59
2022/05/11 05:36:54;;;;;;;9.77;8.07;;;15.70;99.90;;;;;;5095303;28;20500;-59
2022/05/11 05:39:23;;;;;;;11.33;8.40;;;15.70;99.90;;;;;;5097828;28;20460;-57
2022/05/11 05:41:52;;;;;;;8.80;8.00;;;15.60;99.90;;;;;;5097456;28;20474;-59
2022/05/11 05:44:19;;;;;;;10.03;7.93;;;15.70;99.90;;;;;;5097645;28;20962;-59
2022/05/11 05:46:50;;;;;;;9.80;8.43;;;15.80;99.90;;;;;;5083467;28;20493;-59
2022/05/11 05:49:17;;;;;;;10.20;9.20;;;16.00;99.90;;;;;;5077754;28;20446;-59
2022/05/11 05:51:46;;;;;;;9.63;8.73;;;16.10;99.90;;;;;;5077046;28;20469;-60
2022/05/11 05:54:18;;;;;;;9.30;8.40;;;16.30;99.90;;;;;;5077698;28;20457;-59
2022/05/11 05:56:48;;;;;;;12.30;8.33;;;16.60;99.90;;;;;;5086697;28;20857;-60
2022/05/11 05:59:28;;;;;;;9.00;8.30;;;16.90;99.90;;;;;;5098017;28;20557;-59
2022/05/11 06:01:58;;;;;;;10.20;9.20;;;17.20;99.90;;;;;;5096015;28;20461;-59
2022/05/11 06:04:26;;;;;;;10.70;8.50;;;17.60;99.90;;;;;;5097340;28;20532;-59
2022/05/11 06:06:54;;;;;;;13.67;8.37;;;17.80;99.90;;;;;;5090475;28;20465;-59
2022/05/11 06:09:21;;;;;;;9.43;8.27;;;18.10;99.90;;;;;;5077581;28;20468;-60
2022/05/11 06:11:48;;;;;;;9.07;8.30;;;18.40;99.90;;;;;;5077074;28;20436;-60
2022/05/11 06:14:18;;;;;;;9.97;7.97;;;18.60;99.90;;;;;;5077406;28;20458;-60
2022/05/11 06:16:52;;;;;;;13.07;9.10;;;18.90;99.90;;;;;;5078294;28;20481;-60
2022/05/11 06:19:19;;;;;;;10.80;9.67;;;19.10;99.90;;;;;;5076684;28;20465;-60
2022/05/11 06:22:01;;;;;;;8.13;7.30;;;19.40;99.90;;;;;;5075823;28;20948;-60
2022/05/11 06:24:30;;;;;;;11.10;8.07;;;19.60;99.90;;;;;;5085445;28;20527;-60
2022/05/11 06:27:01;;;;;;;9.47;8.60;;;19.90;99.90;;;;;;5097380;28;20468;-60
2022/05/11 06:29:37;;;;;;;10.23;8.30;;;20.10;99.90;;;;;;5078028;28;20511;-60
2022/05/11 06:32:13;;;;;;;9.70;7.63;;;20.30;99.90;;;;;;5076630;28;20457;-60
2022/05/11 06:34:40;;;;;;;8.23;7.63;;;20.50;99.90;;;;;;5076221;28;20461;-60
2022/05/11 06:37:10;;;;;;;9.30;8.43;;;20.70;99.90;;;;;;5077444;28;20941;-60
2022/05/11 06:39:42;;;;;;;11.63;8.47;;;20.80;99.90;;;;;;5092034;28;20522;-60
2022/05/11 06:42:14;;;;;;;8.30;7.13;;;20.90;99.90;;;;;;5096194;28;20460;-61
2022/05/11 06:44:44;;;;;;;8.63;7.57;;;21.10;99.90;;;;;;5076532;28;20524;-60
2022/05/11 06:47:14;;;;;;;11.70;7.50;;;21.10;99.90;;;;;;5076534;28;20959;-61
2022/05/11 06:49:46;;;;;;;9.40;7.03;;;21.10;99.90;;;;;;5088418;28;20464;-60
2022/05/11 06:52:17;;;;;;;11.33;7.10;;;21.30;99.90;;;;;;5093016;28;20492;-60
2022/05/11 07:00:28;;;;;;;7.30;6.60;;;21.60;99.90;;;;;;5086506;28;20471;-61
2022/05/11 07:02:54;;;;;;;15.53;7.17;;;21.90;99.90;;;;;;5088576;28;20843;-61
2022/05/11 07:05:23;;;;;;;7.67;6.77;;;22.10;99.90;;;;;;5085819;28;20515;-61
2022/05/11 07:07:54;;;;;;;7.97;6.57;;;22.10;99.90;;;;;;5088650;28;20453;-61
2022/05/11 07:10:26;;;;;;;8.30;6.80;;;22.30;99.90;;;;;;5087245;28;20488;-61
2022/05/11 07:12:56;;;;;;;7.60;6.90;;;22.50;99.90;;;;;;5093898;28;20915;-61
2022/05/11 07:15:26;;;;;;;8.83;6.97;;;22.50;99.90;;;;;;5087407;28;20819;-61
2022/05/11 07:17:55;;;;;;;8.30;7.30;;;22.70;99.90;;;;;;5085417;28;20563;-61
2022/05/11 07:20:30;;;;;;;7.87;7.10;;;22.80;99.90;;;;;;5083983;28;20491;-61
2022/05/11 07:22:57;;;;;;;8.10;7.30;;;22.70;99.90;;;;;;5098817;28;20533;-61
2022/05/11 07:25:30;;;;;;;8.40;7.67;;;22.60;99.90;;;;;;5099919;28;20554;-61
2022/05/11 07:27:59;;;;;;;9.67;7.73;;;22.50;99.90;;;;;;5100336;28;20517;-61
2022/05/11 07:30:30;;;;;;;11.60;7.97;;;22.80;99.90;;;;;;5099025;28;20748;-61
2022/05/11 07:32:57;;;;;;;7.87;7.07;;;23.00;99.90;;;;;;5100220;28;20467;-61
2022/05/11 07:35:31;;;;;;;9.63;8.73;;;23.00;99.90;;;;;;5091136;28;20545;-61
2022/05/11 07:37:59;;;;;;;10.90;9.57;;;22.70;99.90;;;;;;5079475;28;20530;-61
2022/05/11 07:40:29;;;;;;;10.53;9.13;;;22.40;99.90;;;;;;5078672;28;20472;-61
2022/05/11 07:43:01;;;;;;;9.80;8.90;;;22.70;99.90;;;;;;5100298;28;20820;-61
2022/05/11 07:45:30;;;;;;;10.73;9.73;;;22.90;99.90;;;;;;5094365;28;20511;-61
2022/05/11 07:48:03;;;;;;;10.27;9.37;;;22.60;99.90;;;;;;5086353;28;20947;-61
2022/05/11 07:50:31;;;;;;;11.67;10.10;;;23.20;99.90;;;;;;5079405;28;20457;-61
2022/05/11 07:52:58;;;;;;;12.10;9.77;;;23.40;99.90;;;;;;5087721;28;20472;-62
2022/05/11 07:55:28;;;;;;;12.90;10.63;;;23.40;99.90;;;;;;5084063;28;20458;-61
2022/05/11 08:00:41;;;;;;;11.47;9.50;;;24.10;99.90;;;;;;5095823;28;20447;-61
2022/05/11 08:03:09;;;;;;;13.90;9.43;;;24.40;99.90;;;;;;5087463;28;20492;-62
2022/05/11 08:05:38;;;;;;;10.70;9.80;;;24.30;99.90;;;;;;5088310;28;20885;-62
2022/05/11 08:08:09;;;;;;;9.97;7.80;;;24.20;99.90;;;;;;5082621;28;20460;-62
2022/05/11 08:10:42;;;;;;;9.47;8.53;;;24.30;99.90;;;;;;5091623;28;20907;-61
2022/05/11 08:13:18;;;;;;;9.17;8.27;;;23.90;99.90;;;;;;5079305;28;20461;-61
2022/05/11 08:15:48;;;;;;;7.67;6.90;;;23.70;99.90;;;;;;5079362;28;20496;-61
2022/05/11 08:18:18;;;;;;;11.97;8.47;;;23.50;99.90;;;;;;5096851;28;20560;-61
2022/05/11 08:20:46;;;;;;;11.23;7.80;;;23.40;99.90;;;;;;5099464;28;20460;-62
2022/05/11 08:23:17;;;;;;;7.53;6.93;;;23.50;99.90;;;;;;5091055;28;20489;-61
2022/05/11 08:25:47;;;;;;;8.00;7.30;;;23.50;99.90;;;;;;5079672;28;20458;-62
2022/05/11 08:28:16;;;;;;;7.90;7.10;;;23.70;99.90;;;;;;5078870;28;20563;-62
2022/05/11 08:33:36;;;;;;;6.40;5.90;;;24.00;99.90;;;;;;5089927;28;20434;-61
2022/05/11 08:36:08;;;;;;;6.53;6.03;;;24.00;99.90;;;;;;5089540;28;20472;-62
2022/05/11 08:38:41;;;;;;;7.10;6.40;;;24.20;99.90;;;;;;5086769;28;20960;-62
2022/05/11 08:41:24;;;;;;;7.17;6.47;;;24.10;99.90;;;;;;5084696;28;20802;-62
2022/05/11 08:43:52;;;;;;;6.03;5.47;;;24.30;99.90;;;;;;5079106;28;20493;-61
2022/05/11 08:46:43;;;;;;;7.37;6.67;;;24.10;99.90;;;;;;5084537;28;20488;-62
2022/05/11 08:49:21;;;;;;;6.63;6.13;;;24.40;99.90;;;;;;5085501;28;20751;-62
2022/05/11 08:51:58;;;;;;;7.30;6.53;;;24.90;99.90;;;;;;5078100;28;20928;-62
2022/05/11 08:54:35;;;;;;;7.80;6.67;;;24.70;99.90;;;;;;5083042;28;20464;-62
2022/05/11 08:57:10;;;;;;;10.23;6.53;;;24.70;99.90;;;;;;5088782;28;20532;-62
2022/05/11 08:59:38;;;;;;;7.70;6.13;;;25.00;99.90;;;;;;5081096;28;20515;-62
2022/05/11 09:02:13;;;;;;;13.63;6.53;;;25.50;99.90;;;;;;5082089;28;20546;-63
2022/05/11 09:04:45;;;;;;;8.03;6.50;;;25.10;99.90;;;;;;5079963;28;20528;-62
2022/05/11 09:07:15;;;;;;;6.73;6.07;;;25.10;99.90;;;;;;5095642;28;20481;-62
2022/05/11 09:09:42;;;;;;;6.60;5.90;;;24.90;99.90;;;;;;5089699;28;20885;-62
2022/05/11 09:12:13;;;;;;;8.00;6.00;;;25.20;99.90;;;;;;5083045;28;20456;-62
2022/05/11 09:14:52;;;;;;;5.73;5.17;;;25.20;99.90;;;;;;5084042;28;20465;-63
2022/05/11 09:17:25;;;;;;;6.93;6.33;;;25.30;99.90;;;;;;5081925;28;20462;-61
2022/05/11 09:20:02;;;;;;;6.87;5.83;;;25.50;99.90;;;;;;5082097;28;20492;-62
2022/05/11 09:22:30;;;;;;;6.73;5.30;;;25.80;99.90;;;;;;5078413;28;20463;-62
2022/05/11 09:25:03;;;;;;;8.07;6.37;;;25.90;99.90;;;;;;5088435;28;20500;-62
2022/05/11 09:27:38;;;;;;;7.50;6.00;;;25.60;99.90;;;;;;5096123;28;20837;-62
2022/05/11 09:30:16;;;;;;;6.73;6.03;;;25.40;99.90;;;;;;5085347;28;20751;-62
2022/05/11 09:32:46;;;;;;;10.80;6.00;;;25.00;99.90;;;;;;5097777;28;20466;-62
2022/05/11 09:35:25;;;;;;;8.97;5.60;;;25.20;99.90;;;;;;5098447;28;20491;-61
2022/05/11 09:38:17;;;;;;;6.37;5.50;;;25.30;99.90;;;;;;5095881;28;20817;-62
2022/05/11 09:40:56;;;;;;;6.97;6.20;;;25.20;99.90;;;;;;5090780;28;20471;-62
2022/05/11 09:43:35;;;;;;;5.70;5.20;;;25.60;99.90;;;;;;5077736;28;20500;-62
2022/05/11 09:46:22;;;;;;;10.67;5.60;;;25.70;99.90;;;;;;5077868;28;20496;-62
2022/05/11 09:49:05;;;;;;;6.40;5.80;;;26.30;99.90;;;;;;5076556;28;20882;-62
2022/05/11 09:51:43;;;;;;;6.10;5.60;;;26.70;99.90;;;;;;5086239;28;20464;-62
2022/05/11 09:54:32;;;;;;;8.10;6.00;;;26.30;99.90;;;;;;5096564;28;20550;-62
2022/05/11 09:57:26;;;;;;;6.63;6.03;;;26.40;99.90;;;;;;5096160;28;20780;-62
2022/05/11 10:00:15;;;;;;;10.20;5.53;;;26.50;99.90;;;;;;5096825;28;20464;-62
2022/05/11 10:02:51;;;;;;;5.73;5.23;;;26.10;99.90;;;;;;5081456;28;20552;-63
2022/05/11 10:05:24;;;;;;;7.57;5.07;;;26.10;99.90;;;;;;5080153;28;20481;-62
2022/05/11 10:08:00;;;;;;;10.10;6.60;;;26.30;99.90;;;;;;5088333;28;20484;-62
2022/05/11 10:10:39;;;;;;;7.33;6.50;;;27.10;99.90;;;;;;5076636;28;20453;-62
2022/05/11 10:13:15;;;;;;;7.20;6.60;;;26.40;99.90;;;;;;5080440;28;20483;-62
2022/05/11 10:21:53;;;;;;;9.63;6.60;;;27.00;99.90;;;;;;5085675;28;20447;-62
2022/05/11 10:24:36;;;;;;;8.20;5.73;;;26.30;99.90;;;;;;5095270;28;20586;-62
2022/05/11 10:27:15;;;;;;;6.50;5.90;;;26.40;99.90;;;;;;5096108;28;20518;-61
2022/05/11 10:29:59;;;;;;;7.73;6.33;;;26.20;99.90;;;;;;5090787;28;20465;-62
2022/05/11 10:32:39;;;;;;;7.27;5.87;;;26.00;99.90;;;;;;5076448;28;20510;-62
2022/05/11 10:35:15;;;;;;;6.20;5.70;;;25.90;99.90;;;;;;5075330;28;20485;-61
2022/05/11 10:38:15;;;;;;;5.77;5.23;;;26.50;99.90;;;;;;5075937;28;20567;-61
2022/05/11 10:40:49;;;;;;;7.57;5.70;;;26.70;99.90;;;;;;5076783;28;20460;-61
2022/05/11 10:43:31;;;;;;;8.00;5.30;;;26.80;99.90;;;;;;5086616;28;20550;-61
2022/05/11 10:46:11;;;;;;;5.80;5.20;;;27.40;99.90;;;;;;5076564;28;20497;-61
2022/05/11 10:48:56;;;;;;;6.40;5.80;;;27.30;99.90;;;;;;5075804;28;20439;-62
2022/05/11 10:51:37;;;;;;;6.63;6.13;;;27.40;99.90;;;;;;5082656;28;20467;-62
2022/05/11 10:54:14;;;;;;;7.70;6.07;;;27.30;99.90;;;;;;5079823;28;20457;-62
2022/05/11 10:56:53;;;;;;;6.27;5.77;;;27.10;99.90;;;;;;5076662;28;20461;-62
2022/05/11 10:59:49;;;;;;;6.67;5.90;;;27.20;99.90;;;;;;5076876;28;20500;-62
2022/05/11 11:02:51;;;;;;;5.90;5.50;;;27.80;99.90;;;;;;5069506;28;20500;-62
2022/05/11 11:05:29;;;;;;;5.73;5.10;;;27.80;99.90;;;;;;5075926;28;21000;-62
2022/05/11 11:08:09;;;;;;;6.00;5.50;;;27.90;99.90;;;;;;5075783;28;20465;-62
2022/05/11 11:10:46;;;;;;;6.60;6.00;;;28.00;99.90;;;;;;5075677;28;20882;-62
2022/05/11 11:13:44;;;;;;;10.13;6.60;;;27.70;99.90;;;;;;5076671;28;20461;-62
2022/05/11 11:16:14;;;;;;;6.80;6.20;;;28.10;99.90;;;;;;5093118;28;20513;-61
2022/05/11 11:18:46;;;;;;;6.53;5.80;;;28.20;99.90;;;;;;5095260;28;20934;-62
2022/05/11 11:21:15;;;;;;;6.60;5.30;;;28.10;99.90;;;;;;5093710;28;20464;-62
2022/05/11 11:23:47;;;;;;;8.83;5.37;;;28.10;99.90;;;;;;5095879;28;20811;-59
2022/05/11 11:26:42;;;;;;;5.27;4.87;;;28.10;99.90;;;;;;5081935;28;20532;-59
2022/05/11 11:29:27;;;;;;;6.77;6.03;;;28.40;99.90;;;;;;5075236;28;20519;-59
2022/05/11 11:32:21;;;;;;;7.23;5.77;;;27.80;99.90;;;;;;5074329;28;20472;-59
2022/05/11 11:35:10;;;;;;;12.23;5.57;;;27.70;99.90;;;;;;5073701;28;20801;-59
2022/05/11 11:37:47;;;;;;;6.40;5.80;;;27.90;99.90;;;;;;5074402;28;20496;-59
2022/05/11 11:40:37;;;;;;;7.73;5.50;;;28.00;99.90;;;;;;5075369;28;20928;-59
2022/05/11 11:43:43;;;;;;;5.00;4.50;;;27.80;99.90;;;;;;5079218;28;20439;-60
2022/05/11 11:46:30;;;;;;;5.97;5.13;;;27.40;99.90;;;;;;5083303;28;20931;-59
2022/05/11 11:49:11;;;;;;;5.63;4.80;;;27.90;99.90;;;;;;5099760;28;20553;-59
2022/05/11 11:51:58;;;;;;;8.20;5.53;;;27.90;99.90;;;;;;5092313;28;20500;-58
2022/05/11 11:54:48;;;;;;;5.43;4.93;;;28.70;99.90;;;;;;5079914;28;20958;-59
2022/05/11 11:57:31;;;;;;;5.30;4.77;;;28.70;99.90;;;;;;5086335;28;20492;-58
2022/05/11 12:00:03;;;;;;;5.10;4.60;;;28.70;99.90;;;;;;5084902;28;20483;-60
2022/05/11 12:02:39;;;;;;;5.97;5.47;;;29.10;99.90;;;;;;5089801;28;21079;-55
2022/05/11 12:05:13;;;;;;;7.80;5.43;;;29.70;99.90;;;;;;5083256;28;20957;-56
2022/05/11 12:16:26;;;;;;;7.20;5.57;;;29.40;99.90;;;;;;5086266;28;20459;-54
2022/05/11 12:19:09;;;;;;;5.70;5.30;;;29.20;99.90;;;;;;5081891;28;20476;-56
2022/05/11 12:21:38;;;;;;;6.80;6.10;;;29.30;99.90;;;;;;5076327;28;20542;-56
2022/05/11 12:24:19;;;;;;;9.13;5.83;;;29.20;99.90;;;;;;5085471;28;20465;-58
2022/05/11 12:27:01;;;;;;;8.60;5.80;;;28.80;99.90;;;;;;5077182;28;20505;-55
2022/05/11 12:32:22;;;;;;;7.10;5.37;;;29.40;99.90;;;;;;5078944;28;20433;-58
2022/05/11 12:34:49;;;;;;;5.90;5.40;;;29.30;99.90;;;;;;5079493;28;20499;-58
2022/05/11 12:37:30;;;;;;;6.70;6.10;;;29.50;99.90;;;;;;5078671;28;20465;-58
2022/05/11 12:40:00;;;;;;;6.43;5.83;;;29.60;99.90;;;;;;5079172;28;20492;-59
2022/05/11 12:42:39;;;;;;;5.70;5.07;;;29.80;99.90;;;;;;5080094;28;20586;-58
2022/05/11 12:45:14;;;;;;;5.53;5.03;;;30.10;99.90;;;;;;5084542;28;20491;-58
2022/05/11 12:47:48;;;;;;;6.13;5.63;;;30.30;99.90;;;;;;5087382;28;20811;-58
2022/05/11 12:50:23;;;;;;;10.17;5.73;;;29.80;99.90;;;;;;5099356;28;20563;-58
2022/05/11 12:53:20;;;;;;;8.13;5.30;;;29.70;99.90;;;;;;5083371;28;20489;-59
2022/05/11 12:55:51;;;;;;;5.83;5.30;;;29.60;99.90;;;;;;5078603;28;20511;-59
2022/05/11 12:58:24;;;;;;;5.50;4.80;;;29.20;99.90;;;;;;5098904;28;20496;-57
2022/05/11 13:01:01;;;;;;;6.53;5.93;;;29.60;99.90;;;;;;5099392;28;20470;-59
2022/05/11 13:03:36;;;;;;;7.80;5.10;;;30.20;99.90;;;;;;5096393;28;20465;-59
2022/05/11 13:06:11;;;;;;;8.20;5.90;;;30.10;99.90;;;;;;5092564;28;20521;-59
2022/05/11 13:08:48;;;;;;;6.10;5.60;;;29.40;99.90;;;;;;5091816;28;20464;-59
2022/05/11 13:11:18;;;;;;;7.20;5.27;;;29.50;99.90;;;;;;5078949;28;20827;-57
2022/05/11 13:13:52;;;;;;;7.60;5.20;;;29.50;99.90;;;;;;5081288;28;20481;-60
2022/05/11 13:16:26;;;;;;;6.13;5.60;;;29.60;99.90;;;;;;5078987;28;20782;-61
2022/05/11 13:19:05;;;;;;;6.63;5.50;;;29.80;99.90;;;;;;5082158;28;20506;-61
2022/05/11 13:21:41;;;;;;;5.60;5.10;;;29.50;99.90;;;;;;5079557;28;20457;-62
2022/05/11 13:24:09;;;;;;;8.17;4.80;;;29.20;99.90;;;;;;5083735;28;20547;-62
2022/05/11 13:26:42;;;;;;;7.17;5.90;;;29.60;99.90;;;;;;5093722;28;20569;-61
2022/05/11 13:29:19;;;;;;;6.30;5.70;;;29.30;99.90;;;;;;5088499;28;20804;-60
2022/05/11 13:32:06;;;;;;;11.23;5.43;;;29.40;99.90;;;;;;5078806;28;20755;-61
2022/05/11 13:34:43;;;;;;;6.33;5.40;;;29.90;99.90;;;;;;5084693;28;21070;-61
2022/05/11 13:37:28;;;;;;;6.70;5.67;;;29.80;99.90;;;;;;5081027;28;20479;-61
2022/05/11 13:39:56;;;;;;;6.50;5.77;;;29.10;99.90;;;;;;5083761;28;20480;-61
2022/05/11 13:42:25;;;;;;;6.10;5.60;;;29.10;99.90;;;;;;5082318;28;20467;-61
2022/05/11 13:44:57;;;;;;;7.50;5.20;;;29.40;99.90;;;;;;5076772;28;20460;-62
2022/05/11 13:50:16;;;;;;;13.47;4.97;;;28.50;99.90;;;;;;5085448;28;20440;-62
2022/05/11 13:52:56;;;;;;;8.53;6.53;;;28.50;99.90;;;;;;5085630;28;20461;-61
2022/05/11 13:55:33;;;;;;;7.67;5.93;;;28.90;99.90;;;;;;5078806;28;20464;-62
2022/05/11 13:58:22;;;;;;;11.47;6.10;;;28.60;99.90;;;;;;5085518;28;20428;-62
2022/05/11 14:00:56;;;;;;;10.03;5.57;;;29.20;99.90;;;;;;5077339;28;20516;-62
2022/05/11 14:03:27;;;;;;;10.10;5.60;;;29.40;99.90;;;;;;5076406;28;20522;-62